createdAt,value
2023-09-25T00:01:32.095Z,102229.09
2023-09-25T00:05:34.516Z,102219.59
2023-09-25T00:09:36.246Z,102224.88
2023-09-25T00:13:38.209Z,102221.28
2023-09-25T00:17:41.215Z,102218.88
2023-09-25T00:21:43.123Z,102215.53
2023-09-25T00:25:44.810Z,102218.31
2023-09-25T00:29:46.364Z,102215.72
2023-09-25T00:33:48.041Z,102224.09
2023-09-25T00:37:49.605Z,102223.66
2023-09-25T00:41:51.186Z,102225.38
2023-09-25T00:45:52.988Z,102228.72
2023-09-25T00:49:57.596Z,102227.34
2023-09-25T00:53:59.195Z,102225.56
2023-09-25T00:58:02.000Z,102214.28
2023-09-25T01:02:03.471Z,102216.16
2023-09-25T01:06:06.551Z,102205.59
2023-09-25T01:10:15.549Z,102195.16
2023-09-25T01:14:17.457Z,102204.41
2023-09-25T01:18:18.937Z,102185.69
2023-09-25T01:22:20.477Z,102191.41
2023-09-25T01:26:21.946Z,102187.66
2023-09-25T01:30:24.492Z,102183.56
2023-09-25T01:34:26.092Z,102184.81
2023-09-25T01:38:28.151Z,102191.00
2023-09-25T01:42:29.681Z,102190.13
2023-09-25T01:46:31.218Z,102189.97
2023-09-25T01:50:33.811Z,102184.69
2023-09-25T01:54:36.228Z,102175.09
2023-09-25T01:58:38.353Z,102182.97
2023-09-25T02:02:41.529Z,102173.44
2023-09-25T02:06:43.152Z,102190.72
2023-09-25T02:10:44.678Z,102186.53
2023-09-25T02:14:46.283Z,102190.84
2023-09-25T02:18:48.121Z,102190.16
2023-09-25T02:22:52.337Z,102186.09
2023-09-25T02:26:53.981Z,102191.50
2023-09-25T02:30:55.648Z,102189.09
2023-09-25T02:34:57.244Z,102177.78
2023-09-25T02:38:58.776Z,102179.34
2023-09-25T02:43:01.479Z,102171.53
2023-09-25T02:47:03.203Z,102169.88
2023-09-25T02:51:04.647Z,102171.56
2023-09-25T02:55:06.423Z,102166.59
2023-09-25T02:59:09.054Z,102175.41
2023-09-25T03:03:10.760Z,102185.41
2023-09-25T03:07:12.300Z,102192.09
2023-09-25T03:11:13.806Z,102188.25
2023-09-25T03:15:15.880Z,102191.09
2023-09-25T03:19:17.635Z,102194.13
2023-09-25T03:23:19.256Z,102178.91
2023-09-25T03:27:20.770Z,102177.63
2023-09-25T03:31:22.429Z,102182.19
2023-09-25T03:35:24.280Z,102184.91
2023-09-25T03:39:26.141Z,102185.56
2023-09-25T03:43:28.365Z,102187.91
2023-09-25T03:47:30.119Z,102191.28
2023-09-25T03:51:31.727Z,102187.31
2023-09-25T03:55:33.773Z,102179.78
2023-09-25T03:59:35.266Z,102178.59
2023-09-25T04:03:36.881Z,102187.47
2023-09-25T04:07:39.263Z,102176.44
2023-09-25T04:11:40.698Z,102184.88
2023-09-25T04:15:42.255Z,102182.22
2023-09-25T04:19:45.535Z,102177.56
2023-09-25T04:23:47.258Z,102179.09
2023-09-25T04:27:56.437Z,102181.31
2023-09-25T04:31:58.219Z,102183.47
2023-09-25T04:36:02.354Z,102186.03
2023-09-25T04:40:08.808Z,102191.50
2023-09-25T04:44:10.362Z,102184.75
2023-09-25T04:48:12.249Z,102189.38
2023-09-25T04:52:13.841Z,102190.09
2023-09-25T04:56:22.247Z,102185.53
2023-09-25T05:00:26.171Z,102177.94
2023-09-25T05:04:28.112Z,102183.63
2023-09-25T05:08:29.578Z,102188.63
2023-09-25T05:12:31.855Z,102193.50
2023-09-25T05:16:33.442Z,102189.97
2023-09-25T05:20:35.523Z,102195.84
2023-09-25T05:24:37.145Z,102200.81
2023-09-25T05:28:38.726Z,102197.50
2023-09-25T05:32:44.287Z,102199.13
2023-09-25T05:36:46.544Z,102207.09
2023-09-25T05:40:48.135Z,102201.75
2023-09-25T05:44:49.702Z,102200.91
2023-09-25T05:48:51.291Z,102206.84
2023-09-25T05:52:53.514Z,102199.94
2023-09-25T05:56:54.978Z,102199.19
2023-09-25T06:00:56.820Z,102197.34
2023-09-25T06:04:58.616Z,102193.81
2023-09-25T06:09:00.993Z,102193.25
2023-09-25T06:13:03.127Z,102198.78
2023-09-25T06:17:04.608Z,102191.22
2023-09-25T06:21:06.817Z,102195.34
2023-09-25T06:25:12.681Z,102205.03
2023-09-25T06:29:15.099Z,102205.56
2023-09-25T06:33:17.085Z,102204.25
2023-09-25T06:37:18.901Z,102203.09
2023-09-25T06:41:20.392Z,102194.19
2023-09-25T06:45:22.965Z,102196.41
2023-09-25T06:49:24.655Z,102186.63
2023-09-25T06:53:26.366Z,102180.69
2023-09-25T06:57:28.236Z,102186.50
2023-09-25T07:01:30.179Z,102178.47
2023-09-25T07:05:31.818Z,102185.84
2023-09-25T07:09:33.659Z,102180.09
2023-09-25T07:13:35.159Z,102172.94
2023-09-25T07:17:36.961Z,102181.03
2023-09-25T07:21:38.563Z,102193.16
2023-09-25T07:25:40.052Z,102195.16
2023-09-25T07:29:46.053Z,102197.94
2023-09-25T07:33:47.714Z,102194.78
2023-09-25T07:37:50.032Z,102197.03
2023-09-25T07:41:51.486Z,102192.31
2023-09-25T07:45:53.639Z,102205.66
2023-09-25T07:49:55.297Z,102194.78
2023-09-25T07:53:59.700Z,102195.09
2023-09-25T07:58:04.964Z,102185.44
2023-09-25T08:02:07.657Z,102184.78
2023-09-25T08:06:12.835Z,102187.50
2023-09-25T08:10:14.971Z,102198.44
2023-09-25T08:14:16.545Z,102199.63
2023-09-25T08:18:18.338Z,102194.75
2023-09-25T08:22:20.020Z,102188.25
2023-09-25T08:26:21.469Z,102190.41
2023-09-25T08:30:24.264Z,102193.94
2023-09-25T08:34:25.986Z,102195.03
2023-09-25T08:38:27.579Z,102202.19
2023-09-25T08:42:29.453Z,102196.06
2023-09-25T08:46:31.387Z,102192.22
2023-09-25T08:50:34.864Z,102195.34
2023-09-25T08:54:37.153Z,102197.84
2023-09-25T08:58:43.067Z,102200.63
2023-09-25T09:02:45.253Z,102196.31
2023-09-25T09:06:46.851Z,102197.97
2023-09-25T09:10:48.373Z,102187.69
2023-09-25T09:14:49.932Z,102188.34
2023-09-25T09:19:07.773Z,102183.72
2023-09-25T09:23:10.228Z,102192.47
2023-09-25T09:27:13.204Z,102183.47
2023-09-25T09:31:15.748Z,102184.38
2023-09-25T09:35:24.395Z,102183.25
2023-09-25T09:39:38.461Z,102170.97
2023-09-25T09:43:42.409Z,102170.53
2023-09-25T09:47:48.486Z,102160.47
2023-09-25T09:51:51.388Z,102163.59
2023-09-25T09:55:54.142Z,102159.81
2023-09-25T09:59:57.587Z,102152.09
2023-09-25T10:03:59.450Z,102138.97
2023-09-25T10:08:11.141Z,102149.16
2023-09-25T10:12:12.821Z,102150.94
2023-09-25T10:16:16.813Z,102149.94
2023-09-25T10:20:39.487Z,102143.44
2023-09-25T10:24:46.882Z,102143.06
2023-09-25T10:29:10.209Z,102135.66
2023-09-25T10:33:12.026Z,102140.44
2023-09-25T10:37:14.269Z,102125.75
2023-09-25T10:41:16.564Z,102129.56
2023-09-25T10:45:23.638Z,102126.09
2023-09-25T10:49:25.270Z,102114.81
2023-09-25T10:53:28.145Z,102123.34
2023-09-25T10:57:30.374Z,102108.94
2023-09-25T11:01:32.821Z,102112.03
2023-09-25T11:05:39.722Z,102104.97
2023-09-25T11:09:41.228Z,102104.28
2023-09-25T11:13:43.190Z,102088.59
2023-09-25T11:17:46.920Z,102096.78
2023-09-25T11:21:51.447Z,102089.88
2023-09-25T11:25:54.357Z,102080.56
2023-09-25T11:29:56.711Z,102077.78
2023-09-25T11:33:58.379Z,102073.25
2023-09-25T11:38:02.001Z,102066.13
2023-09-25T11:42:04.359Z,102073.66
2023-09-25T11:46:06.001Z,102059.47
2023-09-25T11:50:08.193Z,102054.75
2023-09-25T11:54:10.112Z,102052.69
2023-09-25T11:58:11.891Z,102046.97
2023-09-25T12:02:13.678Z,102039.97
2023-09-25T12:06:15.275Z,102036.09
2023-09-25T12:10:20.818Z,102038.03
2023-09-25T12:14:22.620Z,102034.72
2023-09-25T12:18:24.918Z,102036.13
2023-09-25T12:22:27.311Z,102032.56
2023-09-25T12:26:29.090Z,102034.78
2023-09-25T12:30:30.952Z,102035.47
2023-09-25T12:34:32.534Z,102036.31
2023-09-25T12:38:34.017Z,102021.22
2023-09-25T12:42:51.082Z,102008.84
2023-09-25T12:46:53.551Z,102004.63
2023-09-25T12:50:55.093Z,102010.66
2023-09-25T12:54:57.131Z,102006.63
2023-09-25T12:58:59.038Z,101999.41
2023-09-25T13:03:00.661Z,101999.78
2023-09-25T13:07:02.364Z,102000.56
2023-09-25T13:11:03.877Z,101998.06
2023-09-25T13:15:07.579Z,101994.78
2023-09-25T13:19:09.325Z,101993.31
2023-09-25T13:23:11.019Z,101989.44
2023-09-25T13:27:12.691Z,101994.53
2023-09-25T13:31:14.608Z,101994.09
2023-09-25T13:35:17.905Z,101980.03
2023-09-25T13:39:19.497Z,101971.94
2023-09-25T13:43:21.486Z,101967.44
2023-09-25T13:47:25.828Z,101962.50
2023-09-25T13:51:27.388Z,101963.97
2023-09-25T13:55:28.924Z,101957.25
2023-09-25T13:59:30.808Z,101954.56
2023-09-25T14:03:32.566Z,101956.53
2023-09-25T14:07:34.514Z,101946.72
2023-09-25T14:11:37.281Z,101947.63
2023-09-25T14:15:39.682Z,101933.22
2023-09-25T14:19:41.221Z,101944.19
2023-09-25T14:23:42.756Z,101938.31
2023-09-25T14:27:44.913Z,101926.59
2023-09-25T14:31:46.713Z,101941.22
2023-09-25T14:35:48.400Z,101931.66
2023-09-25T14:39:50.097Z,101931.59
2023-09-25T14:43:52.153Z,101930.78
2023-09-25T14:47:54.051Z,101916.06
2023-09-25T14:51:57.331Z,101913.91
2023-09-25T14:55:58.929Z,101908.13
2023-09-25T15:00:00.736Z,101907.16
2023-09-25T15:04:02.408Z,101912.22
2023-09-25T15:08:04.375Z,101917.13
2023-09-25T15:12:06.123Z,101908.38
2023-09-25T15:16:09.084Z,101906.81
2023-09-25T15:20:10.823Z,101900.44
2023-09-25T15:24:12.565Z,101902.66
2023-09-25T15:28:14.091Z,101904.75
2023-09-25T15:32:16.186Z,101894.63
2023-09-25T15:36:18.205Z,101893.50
2023-09-25T15:40:24.445Z,101892.56
2023-09-25T15:44:26.383Z,101883.25
2023-09-25T15:48:28.228Z,101882.41
2023-09-25T15:52:29.719Z,101889.44
2023-09-25T15:56:31.348Z,101888.06
2023-09-25T16:00:32.904Z,101887.63
2023-09-25T16:04:36.290Z,101889.72
2023-09-25T16:08:37.977Z,101882.41
2023-09-25T16:12:39.562Z,101880.03
2023-09-25T16:16:41.070Z,101885.34
2023-09-25T16:20:43.576Z,101881.97
2023-09-25T16:24:45.672Z,101894.19
2023-09-25T16:28:47.181Z,101891.38
2023-09-25T16:32:48.857Z,101879.22
2023-09-25T16:36:50.410Z,101878.88
2023-09-25T16:40:52.252Z,101881.97
2023-09-25T16:44:53.891Z,101889.78
2023-09-25T16:48:55.518Z,101893.63
2023-09-25T16:52:57.056Z,101897.69
2023-09-25T16:56:58.565Z,101896.91
2023-09-25T17:01:00.158Z,101901.06
2023-09-25T17:05:01.656Z,101903.34
2023-09-25T17:09:03.533Z,101912.03
2023-09-25T17:13:09.925Z,101917.94
2023-09-25T17:17:11.489Z,101914.63
2023-09-25T17:21:13.571Z,101912.91
2023-09-25T17:25:15.432Z,101909.97
2023-09-25T17:29:17.515Z,101921.78
2023-09-25T17:33:19.022Z,101913.38
2023-09-25T17:37:20.641Z,101916.06
2023-09-25T17:41:22.162Z,101908.28
2023-09-25T17:45:23.720Z,101915.78
2023-09-25T17:49:25.176Z,101914.63
2023-09-25T17:53:26.751Z,101922.78
2023-09-25T17:57:28.270Z,101923.53
2023-09-25T18:01:29.742Z,101923.97
2023-09-25T18:05:31.286Z,101933.91
2023-09-25T18:09:32.812Z,101928.03
2023-09-25T18:13:34.328Z,101938.34
2023-09-25T18:17:35.935Z,101932.94
2023-09-25T18:21:37.556Z,101930.88
2023-09-25T18:25:41.914Z,101942.63
2023-09-25T18:29:43.638Z,101940.84
2023-09-25T18:33:45.200Z,101936.81
2023-09-25T18:37:46.732Z,101935.13
2023-09-25T18:41:48.273Z,101933.09
2023-09-25T18:45:49.965Z,101929.66
2023-09-25T18:49:51.469Z,101925.66
2023-09-25T18:53:53.071Z,101916.59
2023-09-25T18:57:54.604Z,101917.09
2023-09-25T19:01:56.144Z,101915.88
2023-09-25T19:05:57.814Z,101919.19
2023-09-25T19:10:04.196Z,101926.31
2023-09-25T19:14:05.781Z,101926.59
2023-09-25T19:18:07.417Z,101924.56
2023-09-25T19:22:09.802Z,101922.44
2023-09-25T19:26:11.592Z,101914.75
2023-09-25T19:30:14.182Z,101910.03
2023-09-25T19:34:15.736Z,101913.91
2023-09-25T19:38:17.334Z,101913.75
2023-09-25T19:42:18.799Z,101915.00
2023-09-25T19:46:20.877Z,101912.31
2023-09-25T19:50:22.409Z,101911.13
2023-09-25T19:54:23.918Z,101913.75
2023-09-25T19:58:25.476Z,101899.22
2023-09-25T20:02:26.993Z,101900.66
2023-09-25T20:06:28.687Z,101901.19
2023-09-25T20:10:30.389Z,101897.25
2023-09-25T20:14:31.890Z,101895.97
2023-09-25T20:18:33.409Z,101898.78
2023-09-25T20:22:34.947Z,101894.53
2023-09-25T20:26:36.377Z,101897.66
2023-09-25T20:30:37.954Z,101896.06
2023-09-25T20:34:39.682Z,101899.84
2023-09-25T20:38:41.182Z,101901.69
2023-09-25T20:42:42.740Z,101895.59
2023-09-25T20:46:49.485Z,101897.19
2023-09-25T20:50:51.271Z,101894.41
2023-09-25T20:54:52.772Z,101899.81
2023-09-25T20:58:54.277Z,101899.31
2023-09-25T21:02:56.539Z,101903.66
2023-09-25T21:06:58.093Z,101897.31
2023-09-25T21:11:00.019Z,101898.53
2023-09-25T21:15:01.783Z,101903.56
2023-09-25T21:19:03.441Z,101897.31
2023-09-25T21:23:05.076Z,101901.22
2023-09-25T21:27:06.633Z,101902.84
2023-09-25T21:31:08.875Z,101906.13
2023-09-25T21:35:10.488Z,101901.28
2023-09-25T21:39:12.005Z,101897.34
2023-09-25T21:43:13.639Z,101891.44
2023-09-25T21:47:15.622Z,101895.84
2023-09-25T21:51:17.137Z,101900.03
2023-09-25T21:55:18.747Z,101895.25
2023-09-25T21:59:20.299Z,101895.56
2023-09-25T22:03:21.870Z,101890.75
2023-09-25T22:07:23.480Z,101887.06
2023-09-25T22:11:25.678Z,101891.94
2023-09-25T22:15:29.835Z,101889.50
2023-09-25T22:19:31.315Z,101894.22
2023-09-25T22:23:35.210Z,101889.84
2023-09-25T22:27:36.889Z,101897.47
2023-09-25T22:31:40.726Z,101898.41
2023-09-25T22:35:42.712Z,101894.91
2023-09-25T22:39:44.260Z,101898.19
2023-09-25T22:43:47.400Z,101888.91
2023-09-25T22:47:48.889Z,101881.28
2023-09-25T22:51:50.461Z,101889.03
2023-09-25T22:55:51.987Z,101881.91
2023-09-25T22:59:56.673Z,101882.72
2023-09-25T23:03:58.780Z,101880.41
2023-09-25T23:08:00.361Z,101878.69
2023-09-25T23:12:02.044Z,101888.06
2023-09-25T23:16:03.602Z,101885.44
2023-09-25T23:20:24.012Z,101886.03
2023-09-25T23:24:25.512Z,101881.78
2023-09-25T23:28:27.003Z,101888.16
2023-09-25T23:32:28.475Z,101885.84
2023-09-25T23:36:29.967Z,101881.22
2023-09-25T23:40:31.851Z,101869.97
2023-09-25T23:44:33.508Z,101870.03
2023-09-25T23:48:37.409Z,101867.31
2023-09-25T23:52:40.666Z,101867.44
2023-09-25T23:56:42.182Z,101860.25
